TimeEDT,TemperatureF,Dew PointF,Humidity,Sea Level PressureIn,VisibilityMPH,Wind Direction,Wind SpeedMPH,Gust SpeedMPH,PrecipitationIn,Events,Conditions,WindDirDegrees,DateUTC
12:58 AM,65.1,64.2,97,29.80,7.0,NNE,3.5,-,N/A,,Clear,20,2013-06-07 04:58:00
1:58 AM,63.9,62.6,96,29.80,7.0,NNE,4.6,-,N/A,,Clear,20,2013-06-07 05:58:00
2:58 AM,65.1,63.1,93,29.79,10.0,NNE,4.6,-,N/A,,Scattered Clouds,20,2013-06-07 06:58:00
3:58 AM,64.4,63.0,95,29.79,8.0,NE,4.6,-,N/A,,Clear,40,2013-06-07 07:58:00
4:58 AM,63.7,62.6,96,29.78,6.0,NNE,4.6,-,N/A,,Scattered Clouds,20,2013-06-07 08:58:00
5:58 AM,63.0,62.6,99,29.79,4.0,NNE,5.8,-,N/A,,Clear,20,2013-06-07 09:58:00
6:28 AM,62.6,62.6,100,29.79,2.5,NNE,8.1,-,N/A,,Mostly Cloudy,30,2013-06-07 10:28:00
6:33 AM,62.6,62.6,100,29.79,2.5,NNE,6.9,-,N/A,,Mostly Cloudy,30,2013-06-07 10:33:00
6:38 AM,62.6,62.6,100,29.79,3.0,NNE,6.9,-,N/A,,Mostly Cloudy,20,2013-06-07 10:38:00
6:43 AM,62.6,62.6,100,29.79,2.5,NNE,4.6,-,N/A,,Overcast,20,2013-06-07 10:43:00
6:58 AM,62.8,62.8,100,29.80,2.5,NE,4.6,-,N/A,,Overcast,40,2013-06-07 10:58:00
7:18 AM,62.6,62.6,100,29.80,3.0,NNE,5.8,-,N/A,,Overcast,20,2013-06-07 11:18:00
7:58 AM,63.7,63.0,97,29.80,4.0,NNE,4.6,-,N/A,,Overcast,20,2013-06-07 11:58:00
8:02 AM,64.4,62.6,94,29.80,2.0,North,5.8,-,N/A,,Overcast,10,2013-06-07 12:02:00
8:03 AM,64.4,62.6,94,29.80,2.0,North,5.8,-,N/A,,Overcast,10,2013-06-07 12:03:00
8:55 AM,64.4,62.6,94,29.81,3.0,NE,4.6,-,N/A,,Overcast,40,2013-06-07 12:55:00
8:56 AM,64.4,62.6,94,29.81,6.0,NE,4.6,-,N/A,,Overcast,40,2013-06-07 12:56:00
10:55 AM,69.4,62.4,78,29.81,10.0,Variable,2.3,-,N/A,,Overcast,0,2013-06-07 14:55:00
11:55 AM,72.3,63.0,72,29.83,10.0,North,5.8,-,N/A,,Mostly Cloudy,10,2013-06-07 15:55:00
12:55 PM,75.6,63.1,65,29.82,10.0,North,6.9,-,N/A,,Scattered Clouds,10,2013-06-07 16:55:00
1:55 PM,77.4,62.4,60,29.79,10.0,NNW,6.9,-,N/A,,Scattered Clouds,340,2013-06-07 17:55:00
2:58 PM,78.6,61.7,56,29.78,10.0,NNE,9.2,-,N/A,,Scattered Clouds,20,2013-06-07 18:58:00
3:58 PM,79.2,60.1,52,29.78,10.0,NNE,5.8,-,N/A,,Scattered Clouds,30,2013-06-07 19:58:00
4:58 PM,77.5,58.6,52,29.78,10.0,North,4.6,-,N/A,,Overcast,10,2013-06-07 20:58:00
5:58 PM,75.4,61.2,61,29.79,10.0,NNW,3.5,-,N/A,,Overcast,330,2013-06-07 21:58:00
6:58 PM,73.6,62.6,68,29.80,10.0,NNW,4.6,-,N/A,,Mostly Cloudy,330,2013-06-07 22:58:00
7:58 PM,74.7,61.5,63,29.82,10.0,NNW,5.8,-,N/A,,Overcast,340,2013-06-07 23:58:00
8:58 PM,71.4,61.3,70,29.82,10.0,NNW,3.5,-,N/A,,Mostly Cloudy,340,2013-06-08 00:58:00
9:58 PM,70.7,60.1,69,29.84,10.0,NNE,3.5,-,N/A,,Mostly Cloudy,20,2013-06-08 01:58:00
10:58 PM,68.9,61.7,78,29.86,10.0,NNW,4.6,-,N/A,,Mostly Cloudy,340,2013-06-08 02:58:00
11:40 PM,68.0,62.6,83,29.87,10.0,South,3.5,-,N/A,Rain,Light Rain,190,2013-06-08 03:40:00
11:58 PM,67.5,62.6,84,29.86,10.0,SW,4.6,-,0.00,,Light Drizzle,220,2013-06-08 03:58:00